Bruceville, Indiana
Current Conditions -  °F | °C
As of 2:53 AM on Wednesday 22 Oct 2014 (Local Time) from KLWV Reporting Station
Clear Clear  
Wind Chill: 39°   Ceiling: Unl
Heat Index: 43°   Visibility: 10mi
Dew Point: 41°   Wind: 7mph
Humidity: 93%   Direction: 30°NNE
Pressure: 30.24"   Gusts: NA
Location:  38.76°N, 87.42°W
Report Text: KLWV 220753Z AUTO 03006KT 10SM CLR 06/05 A3024 RMK AO2 SLP238 T00610050
Loading
Personal Weather Stations






























Interactive Weather Map
Tropical Storm Tracking
New forecast layout! Learn more

10-Day Weather Forecast

Advertisements
Track Severe Weather on mobile